Time;durP1;ratioP1;P1;durP2;ratioP2;P2;SDS_P1;SDS_P2;PMS_P1;PMS_P2;Temp;Humidity;BMP_temperature;BMP_pressure;BME280_temperature;BME280_humidity;BME280_pressure;Samples;Min_cycle;Max_cycle;Signal;HPM_P1;HPM_P2
2021/12/12 00:01:28;;;;;;;122.40;109.13;;;;;;;4.01;67.39;99606.78;5092844;28;20047;-51
2021/12/12 00:04:13;;;;;;;32.22;24.58;;;;;;;4.10;67.82;99602.53;5092744;28;20048;-50
2021/12/12 00:06:52;;;;;;;28.50;14.18;;;;;;;4.09;67.60;99600.91;5091341;28;20028;-49
2021/12/12 00:09:25;;;;;;;24.42;12.20;;;;;;;3.98;67.17;99607.88;5092655;28;20107;-48
2021/12/12 00:11:51;;;;;;;13.18;7.47;;;;;;;3.93;67.38;99601.44;5092611;28;20028;-47
2021/12/12 00:14:25;;;;;;;13.57;7.13;;;;;;;3.91;67.55;99611.16;5092530;28;20525;-49
2021/12/12 00:16:53;;;;;;;15.13;7.60;;;;;;;3.93;67.45;99607.44;5092457;28;20032;-48
2021/12/12 00:19:21;;;;;;;19.52;8.55;;;;;;;3.94;67.39;99606.50;5092437;28;20518;-48
2021/12/12 00:21:50;;;;;;;15.18;7.60;;;;;;;3.94;67.16;99605.66;5092338;28;20028;-48
2021/12/12 00:24:17;;;;;;;26.05;10.80;;;;;;;3.73;67.18;99609.19;5091043;28;20024;-48
2021/12/12 00:26:46;;;;;;;13.57;7.25;;;;;;;3.51;67.52;99617.19;5090688;28;20039;-49
2021/12/12 00:29:15;;;;;;;13.05;6.85;;;;;;;3.22;67.76;99617.06;5092311;28;20024;-49
2021/12/12 00:31:42;;;;;;;30.23;20.58;;;;;;;3.14;68.70;99612.53;5092242;28;20150;-49
2021/12/12 00:34:08;;;;;;;15.45;8.43;;;;;;;3.11;68.80;99618.00;5092194;28;20020;-48
2021/12/12 00:36:34;;;;;;;17.60;8.07;;;;;;;3.17;69.22;99620.88;5092204;28;20024;-48
2021/12/12 00:39:10;;;;;;;20.83;9.48;;;;;;;3.30;68.64;99617.25;5090750;28;20532;-48
2021/12/12 00:42:02;;;;;;;24.38;14.50;;;;;;;3.26;68.61;99616.72;5091562;28;20098;-48
2021/12/12 00:44:30;;;;;;;31.50;19.70;;;;;;;3.19;69.21;99615.56;5092179;28;20428;-50
2021/12/12 00:46:59;;;;;;;22.75;11.50;;;;;;;3.20;68.74;99622.41;5091930;28;20498;-50
2021/12/12 00:49:26;;;;;;;27.85;16.98;;;;;;;3.02;68.91;99621.34;5092020;28;20028;-51
2021/12/12 00:51:53;;;;;;;19.98;12.73;;;;;;;2.87;68.73;99626.06;5091996;28;20020;-49
2021/12/12 00:54:19;;;;;;;21.38;10.38;;;;;;;2.59;68.70;99626.53;5092023;28;20024;-49
2021/12/12 00:56:46;;;;;;;23.60;12.07;;;;;;;2.26;68.68;99634.50;5091950;28;20020;-48
2021/12/12 00:59:13;;;;;;;16.45;11.32;;;;;;;1.99;69.88;99635.72;5092186;28;20113;-49
2021/12/12 01:01:44;;;;;;;25.40;16.15;;;;;;;1.79;70.12;99626.94;5091869;28;20091;-49
2021/12/12 01:04:37;;;;;;;18.63;10.77;;;;;;;1.74;70.95;99624.72;5091928;28;20035;-49
2021/12/12 01:07:11;;;;;;;22.00;11.57;;;;;;;1.74;70.88;99637.66;5089788;28;20123;-49
2021/12/12 01:09:42;;;;;;;22.23;12.13;;;;;;;1.67;70.75;99643.44;5090539;28;20032;-48
2021/12/12 01:12:13;;;;;;;130.27;81.22;;;;;;;1.52;70.76;99642.88;5091770;28;20150;-49
2021/12/12 01:14:43;;;;;;;24.73;15.80;;;;;;;1.47;71.33;99647.56;5090502;28;20059;-48
2021/12/12 01:17:15;;;;;;;20.55;13.10;;;;;;;1.40;71.80;99645.44;5092018;28;20020;-51
2021/12/12 01:19:49;;;;;;;22.75;12.82;;;;;;;1.38;71.75;99649.91;5090536;28;20108;-48
2021/12/12 01:22:25;;;;;;;22.40;14.23;;;;;;;1.27;71.75;99649.09;5091728;28;20485;-48
2021/12/12 01:24:53;;;;;;;21.75;13.73;;;;;;;1.22;72.02;99654.63;5091498;28;20079;-48
2021/12/12 01:27:19;;;;;;;21.63;11.93;;;;;;;1.16;72.87;99655.09;5090349;28;20063;-48
2021/12/12 01:29:49;;;;;;;28.67;14.32;;;;;;;1.10;72.98;99653.78;5091644;28;20027;-48
2021/12/12 01:32:23;;;;;;;28.73;16.52;;;;;;;1.13;73.42;99657.91;5091615;28;20543;-48
2021/12/12 01:34:51;;;;;;;23.20;12.60;;;;;;;1.22;72.97;99662.38;5091670;28;20041;-48
2021/12/12 01:39:53;;;;;;;21.88;13.13;;;;;;;1.61;73.06;99660.28;5091602;28;20024;-48
2021/12/12 01:42:25;;;;;;;21.88;13.65;;;;;;;1.71;72.66;99662.94;5091514;28;20032;-48
2021/12/12 01:45:19;;;;;;;28.30;14.02;;;;;;;1.69;71.92;99664.84;5091539;28;20028;-50
2021/12/12 01:47:48;;;;;;;26.20;13.70;;;;;;;1.65;71.86;99668.59;5091443;28;20103;-48
2021/12/12 01:50:32;;;;;;;27.40;14.45;;;;;;;1.56;72.13;99673.56;5091422;28;20062;-49
2021/12/12 01:53:00;;;;;;;28.05;14.98;;;;;;;1.56;72.28;99680.50;5094914;28;20564;-48
2021/12/12 01:55:39;;;;;;;27.15;13.23;;;;;;;1.63;72.58;99684.28;5095031;28;20058;-48
2021/12/12 01:58:12;;;;;;;24.67;11.32;;;;;;;1.72;72.68;99688.72;5095160;28;20035;-48
2021/12/12 02:00:49;;;;;;;21.27;10.05;;;;;;;1.80;72.61;99688.94;5095180;28;20077;-49
2021/12/12 02:03:19;;;;;;;21.23;11.07;;;;;;;1.92;72.23;99688.94;5093801;28;20413;-50
2021/12/12 02:05:46;;;;;;;24.33;14.32;;;;;;;1.99;72.21;99696.13;5095003;28;20058;-49
2021/12/12 02:08:16;;;;;;;19.38;10.70;;;;;;;2.03;71.92;99695.84;5094999;28;20027;-49
2021/12/12 02:10:46;;;;;;;18.73;11.00;;;;;;;2.01;71.57;99693.38;5094960;28;20133;-49
2021/12/12 02:13:15;;;;;;;20.90;11.02;;;;;;;1.99;71.97;99698.69;5094916;28;20035;-48
2021/12/12 02:15:46;;;;;;;24.50;13.43;;;;;;;2.06;71.80;99698.22;5094829;28;20027;-48
2021/12/12 02:18:16;;;;;;;23.15;10.75;;;;;;;2.15;71.78;99693.16;5094878;28;20027;-49
2021/12/12 02:21:03;;;;;;;19.17;11.07;;;;;;;2.30;71.79;99701.44;5094869;28;20016;-48
2021/12/12 02:23:52;;;;;;;21.15;10.13;;;;;;;2.42;71.60;99693.66;5094827;28;20028;-48
2021/12/12 02:37:17;;;;;;;23.58;10.05;;;;;;;3.25;70.15;99698.06;5094468;28;20039;-48
2021/12/12 02:39:42;;;;;;;23.02;9.55;;;;;;;3.33;70.25;99694.81;5094358;28;20016;-48
2021/12/12 02:42:12;;;;;;;29.13;17.23;;;;;;;3.48;69.58;99697.91;5094307;28;20028;-48
2021/12/12 02:44:41;;;;;;;19.77;11.02;;;;;;;3.66;69.18;99692.91;5094334;28;20047;-49
2021/12/12 02:47:14;;;;;;;13.55;7.88;;;;;;;3.74;68.57;99691.34;5092862;28;20020;-48
2021/12/12 02:50:08;;;;;;;18.77;8.35;;;;;;;3.65;68.47;99704.28;5092931;28;20413;-48
2021/12/12 02:52:34;;;;;;;16.25;8.77;;;;;;;3.76;69.11;99697.22;5094127;28;20047;-48
2021/12/12 02:55:09;;;;;;;35.83;15.00;;;;;;;3.86;68.74;99699.00;5094045;28;20043;-48
2021/12/12 02:57:35;;;;;;;18.05;10.70;;;;;;;3.88;68.12;99705.69;5094103;28;20039;-48
2021/12/12 03:00:01;;;;;;;20.10;8.57;;;;;;;4.08;68.19;99708.34;5093920;28;20028;-49
2021/12/12 03:02:30;;;;;;;17.20;8.77;;;;;;;4.22;67.67;99709.75;5092086;28;20031;-49
2021/12/12 03:05:04;;;;;;;18.33;8.70;;;;;;;4.23;67.06;99714.00;5093555;28;20024;-48
2021/12/12 03:07:30;;;;;;;19.67;10.48;;;;;;;4.05;67.05;99716.44;5093847;28;20111;-48
2021/12/12 03:09:58;;;;;;;30.80;15.75;;;;;;;4.03;66.97;99711.38;5092414;28;20116;-48
2021/12/12 03:12:33;;;;;;;15.05;8.70;;;;;;;3.92;66.92;99708.84;5093685;28;20028;-48
2021/12/12 03:15:04;;;;;;;14.30;8.32;;;;;;;3.87;67.54;99716.25;5093765;28;20111;-48
2021/12/12 03:17:30;;;;;;;14.98;9.23;;;;;;;3.85;67.37;99720.75;5093693;28;20024;-49
2021/12/12 03:20:06;;;;;;;17.15;8.98;;;;;;;3.73;67.59;99722.59;5093544;28;20431;-48
2021/12/12 03:22:32;;;;;;;24.83;14.85;;;;;;;3.82;67.74;99723.59;5092280;28;20035;-48
2021/12/12 03:24:58;;;;;;;18.40;9.98;;;;;;;3.81;67.75;99717.59;5093200;28;20040;-49
2021/12/12 03:27:24;;;;;;;20.42;9.20;;;;;;;3.75;67.56;99721.50;5093397;28;20020;-48
2021/12/12 03:29:51;;;;;;;20.90;10.85;;;;;;;3.47;68.08;99724.81;5092121;28;20490;-49
2021/12/12 03:32:22;;;;;;;17.15;8.77;;;;;;;3.35;68.44;99724.88;5093370;28;20102;-49
2021/12/12 03:34:55;;;;;;;18.25;9.60;;;;;;;3.40;68.67;99717.53;5093305;28;20037;-48
2021/12/12 03:37:25;;;;;;;16.05;9.18;;;;;;;3.42;68.12;99729.56;5093535;28;20100;-48
2021/12/12 03:39:54;;;;;;;17.27;9.40;;;;;;;3.52;68.79;99726.06;5091872;28;20024;-48
2021/12/12 03:42:23;;;;;;;23.58;9.77;;;;;;;3.72;68.74;99724.38;5091833;28;20028;-48
2021/12/12 03:44:51;;;;;;;19.65;11.30;;;;;;;3.96;67.82;99725.81;5093114;28;20038;-49
2021/12/12 03:47:19;;;;;;;30.83;20.90;;;;;;;3.97;67.51;99724.88;5092940;28;20055;-49
2021/12/12 03:49:46;;;;;;;13.95;9.98;;;;;;;3.98;67.21;99718.72;5091646;28;20032;-48
2021/12/12 03:52:17;;;;;;;18.80;9.27;;;;;;;4.01;67.07;99715.88;5092958;28;20096;-48
2021/12/12 03:54:44;;;;;;;17.92;8.82;;;;;;;3.96;67.19;99726.66;5092946;28;20042;-48
2021/12/12 03:57:10;;;;;;;18.83;9.48;;;;;;;3.78;66.95;99713.47;5092789;28;20051;-47
2021/12/12 03:59:36;;;;;;;18.08;10.15;;;;;;;3.55;67.26;99714.59;5092805;28;20055;-48
2021/12/12 04:02:03;;;;;;;17.13;9.63;;;;;;;3.29;67.59;99715.00;5092754;28;20092;-48
2021/12/12 04:04:37;;;;;;;23.00;11.18;;;;;;;2.93;68.14;99716.28;5092782;28;20028;-48
2021/12/12 04:07:07;;;;;;;22.75;11.85;;;;;;;2.66;69.42;99716.78;5092625;28;20028;-49
2021/12/12 04:09:32;;;;;;;19.70;12.68;;;;;;;2.64;70.54;99714.31;5092644;28;20027;-48
2021/12/12 04:12:02;;;;;;;18.50;10.60;;;;;;;2.82;70.41;99721.50;5092600;28;20431;-48
2021/12/12 04:14:29;;;;;;;25.67;11.10;;;;;;;2.79;70.42;99725.19;5092475;28;20489;-48
2021/12/12 04:16:59;;;;;;;22.48;10.50;;;;;;;3.14;70.41;99716.28;5091111;28;20548;-48
2021/12/12 04:19:45;;;;;;;24.13;10.90;;;;;;;3.29;70.38;99724.56;5092566;28;20024;-49
2021/12/12 04:22:11;;;;;;;;;;;;;;;3.48;69.71;99721.25;5092879;28;20051;-48
2021/12/12 04:24:41;;;;;;;17.05;10.77;;;;;;;3.70;68.86;99723.69;5092178;28;19915;-48
2021/12/12 04:27:08;;;;;;;20.27;10.40;;;;;;;4.00;67.65;99715.06;5092374;28;20032;-49
2021/12/12 04:29:47;;;;;;;18.60;10.95;;;;;;;3.80;67.75;99715.91;5091000;28;20024;-49
2021/12/12 04:32:16;;;;;;;18.60;10.82;;;;;;;3.58;67.72;99704.78;5092364;28;20064;-48
2021/12/12 04:34:47;;;;;;;19.42;10.68;;;;;;;3.40;67.80;99707.16;5092202;28;20066;-48
2021/12/12 04:37:15;;;;;;;22.42;10.20;;;;;;;3.38;68.83;99708.22;5091016;28;20125;-48
2021/12/12 04:39:46;;;;;;;23.77;15.60;;;;;;;3.56;68.55;99701.50;5092157;28;20027;-48
2021/12/12 04:42:19;;;;;;;16.30;9.82;;;;;;;3.68;68.13;99704.84;5092205;28;20144;-48
2021/12/12 04:44:52;;;;;;;15.98;9.15;;;;;;;3.63;67.62;99709.59;5092172;28;20028;-48
2021/12/12 04:51:15;;;;;;;19.00;8.98;;;;;;;3.73;67.64;99718.22;5092086;28;20039;-49
2021/12/12 04:54:06;;;;;;;20.80;10.88;;;;;;;3.80;68.23;99714.16;5090714;28;20515;-48
2021/12/12 04:56:50;;;;;;;15.95;9.82;;;;;;;3.95;67.61;99719.81;5091962;28;20024;-48
2021/12/12 04:59:57;;;;;;;21.17;12.38;;;;;;;4.06;67.82;99728.44;5091871;28;20036;-49
2021/12/12 05:02:31;;;;;;;44.03;35.28;;;;;;;4.28;66.97;99723.03;5083879;28;20040;-51
2021/12/12 05:05:04;;;;;;;21.40;12.68;;;;;;;4.26;66.38;99724.94;5091898;28;20093;-50
2021/12/12 05:07:43;;;;;;;18.85;11.18;;;;;;;4.18;66.40;99723.00;5091857;28;20440;-50
2021/12/12 05:10:21;;;;;;;16.80;10.38;;;;;;;4.06;65.96;99720.66;5091827;28;20482;-50
2021/12/12 05:13:17;;;;;;;16.77;10.38;;;;;;;3.97;66.93;99733.47;5090497;28;20028;-50
2021/12/12 05:15:47;;;;;;;18.50;10.43;;;;;;;4.02;67.16;99734.88;5091832;28;20051;-50
2021/12/12 05:18:19;;;;;;;22.40;10.98;;;;;;;4.08;66.82;99739.53;5091782;28;20366;-50
2021/12/12 05:20:49;;;;;;;19.08;13.73;;;;;;;4.09;65.96;99743.78;5091706;28;20020;-48
2021/12/12 05:23:20;;;;;;;20.42;12.15;;;;;;;3.84;66.83;99751.06;5091754;28;20489;-48
2021/12/12 05:25:58;;;;;;;30.73;17.63;;;;;;;3.71;66.67;99751.28;5091317;28;20052;-48
2021/12/12 05:28:31;;;;;;;37.13;12.15;;;;;;;3.50;67.15;99758.28;5095724;28;20390;-48
2021/12/12 05:30:58;;;;;;;40.45;12.52;;;;;;;3.48;68.09;99754.97;5095681;28;20032;-48
2021/12/12 05:33:24;;;;;;;25.55;12.10;;;;;;;3.61;67.72;99760.81;5095634;28;20545;-48
2021/12/12 05:35:51;;;;;;;23.40;11.57;;;;;;;3.71;67.53;99766.03;5095579;28;20397;-49
2021/12/12 05:38:21;;;;;;;26.73;16.38;;;;;;;3.76;67.11;99766.47;5095571;28;20566;-48
2021/12/12 05:40:47;;;;;;;22.10;12.50;;;;;;;3.58;67.16;99764.50;5095802;28;20436;-48
2021/12/12 05:43:15;;;;;;;23.33;11.43;;;;;;;3.38;67.35;99773.09;5095460;28;20031;-48
2021/12/12 05:45:42;;;;;;;22.75;11.82;;;;;;;3.23;68.32;99770.00;5095263;28;20125;-48
2021/12/12 05:48:08;;;;;;;33.15;13.27;;;;;;;3.30;68.21;99781.53;5095384;28;20385;-48
2021/12/12 05:50:36;;;;;;;35.70;13.45;;;;;;;3.24;67.69;99787.22;5095289;28;20028;-48
2021/12/12 05:53:02;;;;;;;18.08;10.45;;;;;;;3.17;68.10;99786.06;5093925;28;20020;-48
2021/12/12 05:55:32;;;;;;;17.05;10.80;;;;;;;3.10;68.40;99785.75;5093907;28;20057;-48
2021/12/12 05:58:00;;;;;;;26.30;17.10;;;;;;;3.08;68.54;99787.66;5095137;28;20486;-49
2021/12/12 06:00:31;;;;;;;20.63;10.43;;;;;;;3.27;68.24;99789.53;5095108;28;20127;-48
2021/12/12 06:02:58;;;;;;;17.83;11.05;;;;;;;3.38;67.68;99786.91;5095146;28;20032;-48
2021/12/12 06:05:24;;;;;;;15.23;10.18;;;;;;;3.31;67.51;99795.31;5095030;28;20032;-49
2021/12/12 06:07:54;;;;;;;16.23;11.88;;;;;;;3.25;67.98;99794.03;5094937;28;20488;-48
2021/12/12 06:10:21;;;;;;;30.50;12.80;;;;;;;3.25;67.85;99793.22;5094958;28;20115;-48
2021/12/12 06:12:48;;;;;;;21.67;12.48;;;;;;;3.15;67.94;99799.16;5094930;28;20016;-48
2021/12/12 06:15:18;;;;;;;24.50;11.43;;;;;;;3.09;67.88;99799.66;5094851;28;20066;-48
2021/12/12 06:17:47;;;;;;;17.73;10.10;;;;;;;3.12;68.42;99803.75;5094815;28;20692;-49
2021/12/12 06:20:14;;;;;;;18.38;10.93;;;;;;;3.22;68.08;99804.69;5094786;28;20070;-48
2021/12/12 06:22:41;;;;;;;20.65;13.02;;;;;;;3.20;68.31;99801.41;5094700;28;20070;-48
2021/12/12 06:25:08;;;;;;;17.80;12.07;;;;;;;3.28;68.17;99805.94;5093096;28;20136;-48
2021/12/12 06:27:35;;;;;;;19.98;10.68;;;;;;;3.35;67.24;99812.28;5094590;28;20054;-48
2021/12/12 06:30:03;;;;;;;20.73;11.63;;;;;;;3.16;67.15;99812.97;5093275;28;20103;-48
2021/12/12 06:32:28;;;;;;;17.55;10.27;;;;;;;3.02;67.94;99806.31;5093202;28;20054;-48
2021/12/12 06:34:56;;;;;;;19.23;11.38;;;;;;;2.98;68.03;99804.91;5094481;28;20520;-48
2021/12/12 06:37:22;;;;;;;16.80;10.90;;;;;;;2.92;67.95;99802.81;5093640;28;20383;-48
2021/12/12 06:39:49;;;;;;;17.02;10.35;;;;;;;2.89;68.10;99801.25;5093758;28;20553;-49
2021/12/12 06:42:16;;;;;;;35.47;13.10;;;;;;;2.82;68.38;99815.69;5094276;28;20044;-47
2021/12/12 06:44:43;;;;;;;29.48;15.00;;;;;;;2.70;68.28;99819.25;5094273;28;20012;-48
2021/12/12 06:47:12;;;;;;;22.15;12.23;;;;;;;2.72;68.59;99819.94;5094166;28;20032;-48
2021/12/12 06:49:39;;;;;;;27.40;13.27;;;;;;;2.72;68.90;99820.78;5094176;28;20020;-48
2021/12/12 06:52:09;;;;;;;34.65;15.75;;;;;;;2.68;68.69;99826.31;5094184;28;20028;-48
2021/12/12 06:54:35;;;;;;;25.42;14.00;;;;;;;2.60;68.75;99825.16;5092773;28;20048;-48
2021/12/12 06:57:06;;;;;;;25.92;15.15;;;;;;;2.54;69.21;99828.22;5094022;28;20103;-49
2021/12/12 06:59:35;;;;;;;28.05;14.50;;;;;;;2.45;69.03;99833.28;5094044;28;20039;-50
2021/12/12 07:02:04;;;;;;;28.50;15.45;;;;;;;2.32;69.34;99843.81;5093972;28;20472;-48
2021/12/12 07:04:31;;;;;;;26.52;15.07;;;;;;;2.30;69.53;99841.31;5092617;28;20027;-48
2021/12/12 07:07:00;;;;;;;29.92;13.75;;;;;;;2.42;70.19;99846.50;5092489;28;20025;-48
2021/12/12 07:09:30;;;;;;;29.58;14.63;;;;;;;2.47;69.84;99842.59;5092514;28;20020;-48
2021/12/12 07:11:57;;;;;;;26.48;15.60;;;;;;;2.57;70.36;99847.88;5093864;28;20035;-48
2021/12/12 07:14:23;;;;;;;30.35;14.48;;;;;;;2.68;69.74;99852.25;5093808;28;20505;-49
2021/12/12 07:16:50;;;;;;;29.48;15.95;;;;;;;2.66;69.60;99849.75;5093675;28;20020;-48
2021/12/12 07:19:17;;;;;;;26.15;14.60;;;;;;;2.69;69.72;99857.28;5093672;28;20026;-48
2021/12/12 07:21:44;;;;;;;23.90;13.38;;;;;;;2.72;69.58;99861.44;5093549;28;20020;-48
2021/12/12 07:24:11;;;;;;;26.90;15.23;;;;;;;2.73;69.50;99860.47;5093844;28;20028;-48
2021/12/12 07:26:37;;;;;;;20.05;12.32;;;;;;;2.76;69.33;99868.81;5093201;28;20113;-48
2021/12/12 07:29:04;;;;;;;20.20;12.85;;;;;;;2.82;69.10;99869.28;5093465;28;20028;-48
2021/12/12 07:31:33;;;;;;;22.67;13.93;;;;;;;2.79;69.73;99880.72;5093370;28;20016;-49
2021/12/12 07:34:02;;;;;;;21.25;14.13;;;;;;;2.78;68.95;99879.09;5093350;28;20020;-50
2021/12/12 07:36:32;;;;;;;27.40;13.93;;;;;;;2.73;69.24;99884.59;5093268;28;20112;-49
2021/12/12 07:39:07;;;;;;;17.60;12.05;;;;;;;2.89;69.69;99892.00;5093274;28;20472;-47
2021/12/12 07:41:35;;;;;;;22.83;12.95;;;;;;;3.09;69.26;99889.63;5093264;28;20020;-49
2021/12/12 07:44:04;;;;;;;20.20;12.68;;;;;;;3.17;68.72;99892.41;5091832;28;20024;-49
2021/12/12 07:46:30;;;;;;;20.45;13.63;;;;;;;3.17;68.63;99889.81;5092966;28;20024;-49
2021/12/12 07:48:58;;;;;;;22.55;12.90;;;;;;;3.19;68.45;99885.34;5092640;28;20030;-49
2021/12/12 07:51:25;;;;;;;20.30;12.57;;;;;;;3.13;68.10;99891.81;5092983;28;20020;-49
2021/12/12 07:53:54;;;;;;;25.55;13.88;;;;;;;3.04;68.03;99890.00;5092967;28;20028;-49
2021/12/12 07:56:21;;;;;;;23.83;14.05;;;;;;;3.05;68.12;99898.59;5091605;28;20025;-49
2021/12/12 07:58:48;;;;;;;25.17;13.95;;;;;;;3.08;68.26;99896.56;5108509;28;20028;-48
2021/12/12 08:01:15;;;;;;;18.58;12.55;;;;;;;3.16;67.65;99903.75;5092843;28;20024;-48
2021/12/12 08:03:42;;;;;;;21.83;14.10;;;;;;;3.14;67.58;99901.28;5092772;28;20024;-48
2021/12/12 08:06:10;;;;;;;27.75;14.23;;;;;;;3.10;67.61;99896.44;5091336;28;20020;-49
2021/12/12 08:08:36;;;;;;;18.35;13.45;;;;;;;3.16;67.76;99901.16;5092703;28;20504;-48
2021/12/12 08:11:04;;;;;;;20.60;12.50;;;;;;;3.33;67.54;99905.78;5092915;28;20050;-48
2021/12/12 08:13:32;;;;;;;22.35;13.90;;;;;;;3.54;67.38;99903.25;5092572;28;20109;-48
2021/12/12 08:16:00;;;;;;;21.33;13.88;;;;;;;3.66;66.98;99909.19;5091368;28;20062;-48
2021/12/12 08:18:27;;;;;;;21.90;14.50;;;;;;;3.66;66.91;99916.97;5092477;28;20024;-48
2021/12/12 08:20:53;;;;;;;23.20;14.30;;;;;;;3.83;66.90;99918.22;5092493;28;20016;-48
2021/12/12 08:23:22;;;;;;;25.17;16.55;;;;;;;3.96;65.96;99928.41;5092716;28;20035;-49
2021/12/12 08:25:51;;;;;;;27.15;13.75;;;;;;;3.84;65.54;99937.19;5092222;28;20132;-48
2021/12/12 08:28:19;;;;;;;22.30;14.82;;;;;;;3.67;65.99;99926.44;5091026;28;20489;-48
2021/12/12 08:30:47;;;;;;;27.48;13.95;;;;;;;3.60;66.23;99933.06;5090955;28;20040;-48
2021/12/12 08:33:13;;;;;;;30.02;13.52;;;;;;;3.54;65.93;99926.63;5092272;28;20490;-48
2021/12/12 08:35:41;;;;;;;27.45;13.60;;;;;;;3.43;65.94;99933.63;5090899;28;20513;-48
2021/12/12 08:38:09;;;;;;;22.73;13.60;;;;;;;3.34;66.43;99942.94;5092261;28;20025;-48
2021/12/12 08:40:42;;;;;;;30.67;14.93;;;;;;;3.28;66.18;99949.47;5092100;28;20106;-48
2021/12/12 08:43:12;;;;;;;20.23;12.57;;;;;;;3.19;66.15;99947.59;5092188;28;20027;-48
2021/12/12 08:45:42;;;;;;;22.70;12.50;;;;;;;3.22;66.70;99951.69;5091984;28;20035;-48
2021/12/12 08:48:08;;;;;;;25.65;15.65;;;;;;;3.27;66.83;99955.59;5092415;28;20031;-48
2021/12/12 08:51:05;;;;;;;21.33;14.15;;;;;;;3.44;67.26;99948.22;5092017;28;20032;-51
2021/12/12 08:53:31;;;;;;;20.40;12.98;;;;;;;3.71;67.02;99943.41;5091994;28;20016;-51
2021/12/12 08:55:58;;;;;;;20.25;12.55;;;;;;;4.00;66.80;99950.56;5091974;28;20036;-50
2021/12/12 08:58:30;;;;;;;20.13;12.32;;;;;;;4.30;66.04;99944.59;5091901;28;20142;-50
2021/12/12 09:01:07;;;;;;;18.05;13.77;;;;;;;4.52;65.07;99937.59;5091157;28;20110;-50
2021/12/12 09:03:55;;;;;;;20.77;12.27;;;;;;;4.56;65.02;99933.78;5090653;28;20374;-50
2021/12/12 09:06:31;;;;;;;19.23;13.57;;;;;;;4.93;64.68;99946.22;5090514;28;20028;-50
2021/12/12 09:09:04;;;;;;;22.65;14.48;;;;;;;5.08;63.90;99954.47;5091905;28;20028;-50
2021/12/12 09:11:40;;;;;;;24.65;16.83;;;;;;;5.15;63.59;99950.38;5091798;28;20024;-51
2021/12/12 09:14:11;;;;;;;20.40;14.00;;;;;;;5.10;63.79;99949.97;5091798;28;20040;-51
2021/12/12 09:16:42;;;;;;;20.63;14.55;;;;;;;5.19;62.68;99943.94;5090415;28;20035;-51
2021/12/12 09:19:12;;;;;;;20.77;13.07;;;;;;;5.42;63.49;99946.31;5090491;28;20059;-50
2021/12/12 09:21:53;;;;;;;24.20;14.48;;;;;;;5.70;62.36;99955.09;5091706;28;20073;-51
2021/12/12 09:24:34;;;;;;;23.58;15.68;;;;;;;5.80;60.89;99956.75;5090408;28;20034;-50
2021/12/12 09:27:04;;;;;;;22.55;14.30;;;;;;;5.78;61.55;99958.66;5091908;28;20031;-51
2021/12/12 09:29:40;;;;;;;24.52;14.68;;;;;;;5.86;60.40;99965.78;5091686;28;20040;-51
2021/12/12 09:32:09;;;;;;;;;;;;;;;5.88;60.68;99957.84;5092372;28;20086;-51
2021/12/12 09:34:41;;;;;;;26.73;18.27;;;;;;;5.78;61.01;99963.88;5090255;28;20392;-51
2021/12/12 09:37:25;;;;;;;23.20;16.05;;;;;;;5.89;60.55;99969.91;5091547;28;20028;-51
2021/12/12 09:40:03;;;;;;;23.35;15.00;;;;;;;6.43;59.91;99971.06;5091518;28;20086;-51
2021/12/12 09:42:56;;;;;;;19.70;14.43;;;;;;;6.88;59.86;99967.75;5091622;28;20059;-51
2021/12/12 09:45:35;;;;;;;16.98;13.65;;;;;;;7.32;58.76;99975.72;5090151;28;20161;-51
2021/12/12 09:51:38;;;;;;;18.23;14.15;;;;;;;7.52;57.93;99979.03;5091481;28;20059;-51
2021/12/12 09:54:27;;;;;;;17.95;13.18;;;;;;;7.54;56.96;99976.28;5091427;28;20407;-51
2021/12/12 09:57:05;;;;;;;19.02;11.68;;;;;;;7.48;56.92;99979.50;5090158;28;20047;-51
2021/12/12 10:00:05;;;;;;;17.13;12.88;;;;;;;7.90;56.79;99968.44;5091402;28;20100;-51
2021/12/12 10:03:05;;;;;;;20.17;13.35;;;;;;;8.57;56.34;99961.72;5091420;28;20103;-51
2021/12/12 10:05:36;;;;;;;16.70;12.93;;;;;;;9.14;54.35;99960.31;5091310;28;20020;-51
2021/12/12 10:08:47;;;;;;;20.05;12.90;;;;;;;10.34;53.36;99958.09;5090002;28;20028;-51
2021/12/12 10:11:34;;;;;;;18.33;14.45;;;;;;;12.15;49.23;99952.66;5028856;28;20035;-51
2021/12/12 10:14:13;;;;;;;21.95;16.65;;;;;;;13.03;46.17;99943.09;5015696;28;20029;-52
2021/12/12 10:16:48;;;;;;;24.67;18.15;;;;;;;13.81;46.59;99945.13;5032514;28;20073;-52
2021/12/12 10:19:41;;;;;;;24.05;18.92;;;;;;;15.28;44.87;99930.91;5032504;28;20442;-50
2021/12/12 10:22:35;;;;;;;24.85;18.08;;;;;;;15.77;43.03;99933.25;5032354;28;20049;-49
2021/12/12 10:25:12;;;;;;;21.83;18.45;;;;;;;14.92;42.56;99929.38;5032068;28;20115;-49
2021/12/12 10:27:51;;;;;;;21.55;18.02;;;;;;;13.52;42.98;99924.00;5015575;28;20418;-52
2021/12/12 10:30:18;;;;;;;24.40;17.75;;;;;;;12.17;44.31;99924.34;5032212;28;20041;-51
2021/12/12 10:33:03;;;;;;;29.42;18.73;;;;;;;10.87;46.59;99925.13;5015606;28;20461;-52
2021/12/12 10:36:12;;;;;;;26.53;19.07;;;;;;;9.86;48.72;99923.03;5032145;28;20057;-51
2021/12/12 10:38:52;;;;;;;23.58;16.25;;;;;;;9.54;49.74;99922.09;5031428;28;20045;-51
2021/12/12 10:41:28;;;;;;;24.83;17.23;;;;;;;9.85;50.08;99922.22;5045560;28;20040;-51
2021/12/12 10:44:00;;;;;;;21.73;17.33;;;;;;;10.49;49.61;99914.44;5094311;28;20031;-51
2021/12/12 10:46:38;;;;;;;23.23;17.92;;;;;;;11.61;48.49;99919.41;5094204;28;20032;-51
2021/12/12 10:49:29;;;;;;;23.45;18.10;;;;;;;13.11;47.49;99913.19;5092671;28;20044;-52
2021/12/12 10:52:07;;;;;;;22.25;17.17;;;;;;;14.58;44.44;99905.44;5094226;28;20047;-52
2021/12/12 10:55:13;;;;;;;49.75;18.05;;;;;;;15.51;42.25;99890.84;5092854;28;20031;-51
2021/12/12 10:57:42;;;;;;;21.17;15.83;;;;;;;16.11;41.52;99894.28;5052701;28;20082;-49
2021/12/12 11:00:22;;;;;;;23.48;15.75;;;;;;;16.17;39.42;99893.47;5093981;28;20069;-51
2021/12/12 11:03:00;;;;;;;21.10;16.83;;;;;;;15.96;39.29;99893.72;5094033;28;20028;-51
2021/12/12 11:05:44;;;;;;;26.20;16.65;;;;;;;15.49;39.97;99888.41;5093904;28;20028;-52
2021/12/12 11:08:20;;;;;;;21.83;16.13;;;;;;;15.95;39.48;99884.94;5092652;28;20032;-51
2021/12/12 11:10:47;;;;;;;20.20;15.90;;;;;;;15.56;38.73;99893.69;5093875;28;20028;-51
2021/12/12 11:13:22;;;;;;;22.35;16.38;;;;;;;14.55;40.25;99883.88;5093849;28;20443;-51
2021/12/12 11:16:21;;;;;;;321.05;277.98;;;;;;;14.55;41.28;99889.97;5093674;28;20020;-51
2021/12/12 11:18:57;;;;;;;56.05;45.83;;;;;;;15.32;40.70;99880.03;5082601;28;20059;-52
2021/12/12 11:21:33;;;;;;;27.48;23.30;;;;;;;15.97;39.44;99876.81;5093611;28;20032;-51
2021/12/12 11:24:22;;;;;;;23.52;20.08;;;;;;;15.80;38.96;99873.78;5091568;28;20024;-51
2021/12/12 11:27:00;;;;;;;20.15;16.65;;;;;;;16.05;38.83;99865.19;5093249;28;20119;-51
2021/12/12 11:29:32;;;;;;;19.70;16.83;;;;;;;16.58;37.81;99865.03;5093486;28;20164;-51
2021/12/12 11:32:08;;;;;;;21.58;15.90;;;;;;;16.65;37.38;99862.34;5093415;28;20028;-52
2021/12/12 11:34:34;;;;;;;18.33;15.07;;;;;;;16.48;37.09;99867.28;5093298;28;20062;-52
2021/12/12 11:37:13;;;;;;;20.65;16.35;;;;;;;15.51;37.95;99873.16;5093269;28;20036;-52
2021/12/12 11:40:02;;;;;;;17.65;15.57;;;;;;;14.82;39.45;99874.25;5091986;28;20039;-51
2021/12/12 11:42:58;;;;;;;20.00;16.83;;;;;;;14.56;39.73;99875.75;5093109;28;20039;-52
2021/12/12 11:45:39;;;;;;;17.85;15.63;;;;;;;14.38;40.11;99872.81;5093247;28;20043;-51
2021/12/12 11:48:29;;;;;;;17.58;15.10;;;;;;;14.22;40.28;99870.50;5093117;28;20043;-51
2021/12/12 11:51:03;;;;;;;17.58;15.20;;;;;;;14.09;40.45;99874.69;5093069;28;20024;-51
2021/12/12 11:54:09;;;;;;;16.98;14.52;;;;;;;14.10;40.52;99867.56;5093088;28;20401;-51
2021/12/12 11:56:45;;;;;;;18.73;14.93;;;;;;;13.74;40.45;99856.19;5079268;28;20030;-51
2021/12/12 11:59:32;;;;;;;20.48;15.43;;;;;;;12.45;42.35;99860.53;5092957;28;20071;-51
2021/12/12 12:02:34;;;;;;;18.40;13.77;;;;;;;11.88;43.62;99860.13;5092924;28;20039;-51
2021/12/12 12:05:13;;;;;;;16.83;14.65;;;;;;;11.36;44.20;99872.25;5091525;28;20080;-51
2021/12/12 12:07:52;;;;;;;21.60;16.25;;;;;;;10.46;46.06;99864.06;5092791;28;20020;-51
2021/12/12 12:10:45;;;;;;;18.30;14.32;;;;;;;10.47;47.27;99861.28;5092853;28;20028;-51
2021/12/12 12:13:11;;;;;;;16.88;14.00;;;;;;;10.52;47.07;99868.66;5092742;28;20024;-51